Terminal Aerodrome Forecast
Issued by NWS

Home | Current Version | Previous Version | Text Only | Print | Product List | Glossary On
Versions: 1 2 3 4 5 6 7 8 9 10 11 12 13 14 15 16 17
660
FTUS43 KTOP 222333
TAFMHK
TAF
KMHK 222333Z 2300/2324 18010KT P6SM SCT200
     FM230500 04006KT P6SM BKN060
     FM230600 36009KT P6SM VCTS BKN060CB
     FM230900 03010KT P6SM VCSH BKN040
     FM231200 02007KT P6SM BKN050
     FM231600 01010KT P6SM SCT100=

USA.gov is the U.S. government's official web portal to all federal, state and local government web resources and services.